createdAt,value
2018-05-25T00:01:19.049Z,35.53
2018-05-25T00:02:19.110Z,35.91
2018-05-25T00:04:12.099Z,35.43
2018-05-25T00:05:12.164Z,35.43
2018-05-25T00:07:05.178Z,35.63
2018-05-25T00:08:05.226Z,35.72
2018-05-25T00:09:58.232Z,35.43
2018-05-25T00:10:58.279Z,35.53
2018-05-25T00:12:51.272Z,35.22
2018-05-25T00:13:51.340Z,34.95
2018-05-25T00:15:44.337Z,35.05
2018-05-25T00:16:44.394Z,35.05
2018-05-25T00:18:37.395Z,34.95
2018-05-25T00:19:37.454Z,34.86
2018-05-25T00:21:30.451Z,34.55
2018-05-25T00:22:30.511Z,34.67
2018-05-25T00:24:23.507Z,35.14
2018-05-25T00:25:23.574Z,35.05
2018-05-25T00:27:16.578Z,34.47
2018-05-25T00:28:16.644Z,34.57
2018-05-25T00:30:09.653Z,34.76
2018-05-25T00:31:09.694Z,34.36
2018-05-25T00:33:02.691Z,34.65
2018-05-25T00:34:02.754Z,34.27
2018-05-25T00:35:55.756Z,34.07
2018-05-25T00:36:55.812Z,34.47
2018-05-25T00:38:48.806Z,34.55
2018-05-25T00:39:48.869Z,34.55
2018-05-25T00:41:41.869Z,34.28
2018-05-25T00:42:41.927Z,34.55
2018-05-25T00:44:34.926Z,34.28
2018-05-25T00:45:34.990Z,34.17
2018-05-25T00:47:27.994Z,34.28
2018-05-25T00:48:28.048Z,34.36
2018-05-25T00:50:21.112Z,34.36
2018-05-25T00:51:21.106Z,34.28
2018-05-25T00:53:14.097Z,34.27
2018-05-25T00:54:14.161Z,34.28
2018-05-25T00:56:07.161Z,34.19
2018-05-25T00:57:07.218Z,33.99
2018-05-25T00:59:00.211Z,34.09
2018-05-25T01:00:00.276Z,34.19
2018-05-25T01:01:53.275Z,33.61
2018-05-25T01:02:53.336Z,33.70
2018-05-25T01:04:46.329Z,33.90
2018-05-25T01:05:46.397Z,33.61
2018-05-25T01:07:39.392Z,33.80
2018-05-25T01:08:39.453Z,34.28
2018-05-25T01:10:32.451Z,34.09
2018-05-25T01:11:32.508Z,34.09
2018-05-25T01:13:25.509Z,33.99
2018-05-25T01:14:25.621Z,34.28
2018-05-25T01:16:18.562Z,33.42
2018-05-25T01:17:18.621Z,33.70
2018-05-25T01:19:11.615Z,33.51
2018-05-25T01:20:11.681Z,33.42
2018-05-25T01:22:04.682Z,33.32
2018-05-25T01:23:04.736Z,33.42
2018-05-25T01:24:57.731Z,33.23
2018-05-25T01:25:57.792Z,33.23
2018-05-25T01:27:50.792Z,33.42
2018-05-25T01:28:50.851Z,33.31
2018-05-25T01:30:43.850Z,33.23
2018-05-25T01:31:43.912Z,32.93
2018-05-25T01:33:36.909Z,32.73
2018-05-25T01:34:36.966Z,32.65
2018-05-25T01:36:29.965Z,32.82
2018-05-25T01:37:30.021Z,32.54
2018-05-25T01:39:23.023Z,32.82
2018-05-25T01:40:23.082Z,32.54
2018-05-25T01:42:16.082Z,32.64
2018-05-25T01:43:16.138Z,32.34
2018-05-25T01:45:09.130Z,32.54
2018-05-25T01:46:09.196Z,32.34
2018-05-25T01:48:02.193Z,32.44
2018-05-25T01:49:02.251Z,32.25
2018-05-25T01:51:02.793Z,32.25
2018-05-25T01:51:55.308Z,32.25
2018-05-25T01:53:48.301Z,32.06
2018-05-25T01:54:48.366Z,32.25
2018-05-25T01:56:41.363Z,32.54
2018-05-25T01:57:41.421Z,32.34
2018-05-25T01:59:34.412Z,32.06
2018-05-25T02:00:34.477Z,31.77
2018-05-25T02:02:27.476Z,32.34
2018-05-25T02:03:27.533Z,31.87
2018-05-25T02:05:21.034Z,31.87
2018-05-25T02:06:21.097Z,31.67
2018-05-25T02:08:14.096Z,31.20
2018-05-25T02:09:14.153Z,31.58
2018-05-25T02:11:07.208Z,31.29
2018-05-25T02:12:07.208Z,31.00
2018-05-25T02:14:00.200Z,31.48
2018-05-25T02:15:00.266Z,31.10
2018-05-25T02:16:53.262Z,31.00
2018-05-25T02:17:53.322Z,30.62
2018-05-25T02:19:46.320Z,31.10
2018-05-25T02:20:46.384Z,31.00
2018-05-25T02:22:39.383Z,30.71
2018-05-25T02:23:39.439Z,30.33
2018-05-25T02:25:32.436Z,30.41
2018-05-25T02:26:32.497Z,30.43
2018-05-25T02:28:25.503Z,30.23
2018-05-25T02:29:25.552Z,29.74
2018-05-25T02:31:18.553Z,30.32
2018-05-25T02:32:18.617Z,29.55
2018-05-25T02:34:11.610Z,29.56
2018-05-25T02:35:11.669Z,29.55
2018-05-25T02:37:04.669Z,29.35
2018-05-25T02:38:04.726Z,29.83
2018-05-25T02:39:57.727Z,29.55
2018-05-25T02:40:57.784Z,29.64
2018-05-25T02:42:50.788Z,29.45
2018-05-25T02:43:50.842Z,29.16
2018-05-25T02:45:43.835Z,29.74
2018-05-25T02:46:43.899Z,29.35
2018-05-25T02:48:36.897Z,29.16
2018-05-25T02:49:36.955Z,29.06
2018-05-25T02:51:29.962Z,28.78
2018-05-25T02:52:30.011Z,28.97
2018-05-25T02:54:23.003Z,28.97
2018-05-25T02:55:23.067Z,28.68
2018-05-25T02:57:16.122Z,28.78
2018-05-25T02:58:16.124Z,28.78
2018-05-25T03:00:09.126Z,28.78
2018-05-25T03:01:09.201Z,28.68
2018-05-25T03:03:02.184Z,28.88
2018-05-25T03:04:02.240Z,28.78
2018-05-25T03:05:55.737Z,28.97
2018-05-25T03:06:55.804Z,28.88
2018-05-25T03:08:48.806Z,29.16
2018-05-25T03:09:48.911Z,29.06
2018-05-25T03:11:41.905Z,28.78
2018-05-25T03:12:41.949Z,28.97
2018-05-25T03:14:34.941Z,28.78
2018-05-25T03:15:35.002Z,29.26
2018-05-25T03:17:28.003Z,29.26
2018-05-25T03:18:28.060Z,28.97
2018-05-25T03:20:21.050Z,29.06
2018-05-25T03:21:21.115Z,29.16
2018-05-25T03:23:14.114Z,29.26
2018-05-25T03:24:14.170Z,29.26
2018-05-25T03:26:07.167Z,29.16
2018-05-25T03:27:07.226Z,29.16
2018-05-25T03:29:00.224Z,28.68
2018-05-25T03:30:00.278Z,29.26
2018-05-25T03:31:53.285Z,28.97
2018-05-25T03:32:53.336Z,28.97
2018-05-25T03:34:46.335Z,29.06
2018-05-25T03:35:46.397Z,28.97
2018-05-25T03:37:39.395Z,28.78
2018-05-25T03:38:39.449Z,29.06
2018-05-25T03:40:32.455Z,29.16
2018-05-25T03:41:32.507Z,29.16
2018-05-25T03:43:25.505Z,29.16
2018-05-25T03:44:25.562Z,29.35
2018-05-25T03:46:18.555Z,29.16
2018-05-25T03:47:18.618Z,29.08
2018-05-25T03:49:11.617Z,29.06
2018-05-25T03:50:11.674Z,29.16
2018-05-25T03:52:04.672Z,29.06
2018-05-25T03:53:04.730Z,28.88
2018-05-25T03:54:57.729Z,29.26
2018-05-25T03:55:57.785Z,28.68
2018-05-25T03:57:50.784Z,28.78
2018-05-25T03:58:50.840Z,28.78
2018-05-25T04:00:43.832Z,29.06
2018-05-25T04:01:43.896Z,29.06
2018-05-25T04:03:36.896Z,29.26
2018-05-25T04:04:36.952Z,29.06
2018-05-25T04:06:29.953Z,29.16
2018-05-25T04:07:30.019Z,29.06
2018-05-25T04:09:23.014Z,28.78
2018-05-25T04:10:23.073Z,28.97
2018-05-25T04:12:16.087Z,29.16
2018-05-25T04:13:16.135Z,29.27
2018-05-25T04:15:09.127Z,29.06
2018-05-25T04:16:09.190Z,29.08
2018-05-25T04:18:02.190Z,29.26
2018-05-25T04:19:02.246Z,29.08
2018-05-25T04:20:55.237Z,29.47
2018-05-25T04:21:55.301Z,29.55
2018-05-25T04:23:48.299Z,29.37
2018-05-25T04:24:48.359Z,29.17
2018-05-25T04:26:41.353Z,29.27
2018-05-25T04:27:41.419Z,29.17
2018-05-25T04:29:34.419Z,29.85
2018-05-25T04:30:34.479Z,29.47
2018-05-25T04:32:27.468Z,29.56
2018-05-25T04:33:27.531Z,29.37
2018-05-25T04:35:20.531Z,29.17
2018-05-25T04:36:20.588Z,29.17
2018-05-25T04:38:13.586Z,29.27
2018-05-25T04:39:13.644Z,29.37
2018-05-25T04:41:06.636Z,29.75
2018-05-25T04:42:06.700Z,29.27
2018-05-25T04:43:59.713Z,29.56
2018-05-25T04:44:59.756Z,29.27
2018-05-25T04:46:52.749Z,29.75
2018-05-25T04:47:52.813Z,29.66
2018-05-25T04:49:45.811Z,30.33
2018-05-25T04:50:45.870Z,29.56
2018-05-25T04:52:38.868Z,29.85
2018-05-25T04:53:38.957Z,29.56
2018-05-25T04:55:31.927Z,29.75
2018-05-25T04:56:31.985Z,29.56
2018-05-25T04:58:24.983Z,29.85
2018-05-25T04:59:25.042Z,29.66
2018-05-25T05:01:18.034Z,29.56
2018-05-25T05:02:18.098Z,30.33
2018-05-25T05:04:11.101Z,30.23
2018-05-25T05:05:11.157Z,30.33
2018-05-25T05:07:04.152Z,30.73
2018-05-25T05:08:04.216Z,30.73
2018-05-25T05:09:57.215Z,30.82
2018-05-25T05:10:57.297Z,30.82
2018-05-25T05:12:50.269Z,30.82
2018-05-25T05:13:50.325Z,30.82
2018-05-25T05:15:43.329Z,31.11
2018-05-25T05:16:43.385Z,30.35
2018-05-25T05:18:36.386Z,30.44
2018-05-25T05:19:36.442Z,30.25
2018-05-25T05:21:29.435Z,31.30
2018-05-25T05:22:29.503Z,31.21
2018-05-25T05:24:22.502Z,31.49
2018-05-25T05:25:22.560Z,31.02
2018-05-25T05:27:15.566Z,30.82
2018-05-25T05:28:15.635Z,31.02
2018-05-25T05:30:08.618Z,30.05
2018-05-25T05:31:08.675Z,30.82
2018-05-25T05:33:01.677Z,30.05
2018-05-25T05:34:01.732Z,30.82
2018-05-25T05:35:54.732Z,31.11
2018-05-25T05:36:54.788Z,31.30
2018-05-25T05:38:47.790Z,31.02
2018-05-25T05:39:47.853Z,30.82
2018-05-25T05:41:40.846Z,30.63
2018-05-25T05:42:40.908Z,30.63
2018-05-25T05:44:33.910Z,31.02
2018-05-25T05:45:33.967Z,31.59
2018-05-25T05:47:26.959Z,32.26
2018-05-25T05:48:27.024Z,31.02
2018-05-25T05:50:20.024Z,31.40
2018-05-25T05:51:20.081Z,30.73
2018-05-25T05:53:13.095Z,30.63
2018-05-25T05:54:13.141Z,30.05
2018-05-25T05:56:06.136Z,30.73
2018-05-25T05:57:06.198Z,30.44
2018-05-25T05:58:59.198Z,31.70
2018-05-25T05:59:59.273Z,31.03
2018-05-25T06:01:52.249Z,31.99
2018-05-25T06:02:52.315Z,31.03
2018-05-25T06:04:45.316Z,31.61
2018-05-25T06:05:45.371Z,31.51
2018-05-25T06:07:38.365Z,32.47
2018-05-25T06:08:38.430Z,32.47
2018-05-25T06:10:31.430Z,33.16
2018-05-25T06:11:31.499Z,32.10
2018-05-25T06:13:24.504Z,32.30
2018-05-25T06:14:24.554Z,33.45
2018-05-25T06:16:17.538Z,33.93
2018-05-25T06:17:17.606Z,33.18
2018-05-25T06:19:10.607Z,33.85
2018-05-25T06:20:10.665Z,35.99
2018-05-25T06:22:03.659Z,37.24
2018-05-25T06:23:03.727Z,37.62
2018-05-25T06:24:56.727Z,38.31
2018-05-25T06:25:56.785Z,38.31
2018-05-25T06:27:49.781Z,41.78
2018-05-25T06:28:49.847Z,42.47
2018-05-25T06:30:42.846Z,41.99
2018-05-25T06:31:42.903Z,42.38
2018-05-25T06:33:35.907Z,44.32
2018-05-25T06:34:35.962Z,44.11
2018-05-25T06:36:28.966Z,44.62
2018-05-25T06:37:29.025Z,45.97
2018-05-25T06:39:22.030Z,54.33
2018-05-25T06:40:22.096Z,69.37
2018-05-25T06:42:15.601Z,79.22
2018-05-25T06:43:15.664Z,78.54
2018-05-25T06:45:08.669Z,74.65
2018-05-25T06:46:08.725Z,71.30
2018-05-25T06:48:01.732Z,72.13
2018-05-25T06:49:01.818Z,68.75
2018-05-25T06:50:54.813Z,68.71
2018-05-25T06:51:54.877Z,69.20
2018-05-25T06:53:47.875Z,70.10
2018-05-25T06:54:47.941Z,70.81
2018-05-25T06:56:40.948Z,73.71
2018-05-25T06:57:41.008Z,74.19
2018-05-25T06:59:34.023Z,74.00
2018-05-25T07:00:34.079Z,73.22
2018-05-25T07:02:27.079Z,72.61
2018-05-25T07:03:27.149Z,69.58
2018-05-25T07:05:20.162Z,68.01
2018-05-25T07:06:20.238Z,64.31
2018-05-25T07:08:13.239Z,59.07
2018-05-25T07:09:13.315Z,57.17
2018-05-25T07:11:06.320Z,57.34
2018-05-25T07:12:06.380Z,57.46
2018-05-25T07:13:59.409Z,61.32
2018-05-25T07:14:59.463Z,60.45
2018-05-25T07:16:52.469Z,61.99
2018-05-25T07:17:52.532Z,60.86
2018-05-25T07:19:45.539Z,64.47
2018-05-25T07:20:45.600Z,66.59
2018-05-25T07:22:38.602Z,68.71
2018-05-25T07:23:38.670Z,68.91
2018-05-25T07:25:31.681Z,70.10
2018-05-25T07:26:31.735Z,68.36
2018-05-25T07:28:24.735Z,70.81
2018-05-25T07:29:24.803Z,74.10
2018-05-25T07:31:17.826Z,74.71
2018-05-25T07:32:17.875Z,76.26
2018-05-25T07:34:10.883Z,71.36
2018-05-25T07:35:10.946Z,71.74
2018-05-25T07:37:03.954Z,81.62
2018-05-25T07:38:04.021Z,81.93
2018-05-25T07:39:57.026Z,80.56
2018-05-25T07:40:57.091Z,79.10
2018-05-25T07:42:50.604Z,70.46
2018-05-25T07:43:50.687Z,66.31
2018-05-25T07:45:43.684Z,60.25
2018-05-25T07:46:43.778Z,56.16
2018-05-25T07:48:36.765Z,51.25
2018-05-25T07:49:36.841Z,50.66
2018-05-25T07:51:29.864Z,48.47
2018-05-25T07:52:29.928Z,48.90
2018-05-25T07:54:22.990Z,49.31
2018-05-25T07:55:23.028Z,48.19
2018-05-25T07:57:16.034Z,48.41
2018-05-25T07:58:16.107Z,50.88
2018-05-25T08:00:09.139Z,50.71
2018-05-25T08:01:09.209Z,48.68
2018-05-25T08:03:02.227Z,51.64
2018-05-25T08:04:02.305Z,51.51
2018-05-25T08:05:55.329Z,48.08
2018-05-25T08:06:55.404Z,46.39
2018-05-25T08:08:48.443Z,46.26
2018-05-25T08:09:48.500Z,44.89
2018-05-25T08:11:53.153Z,47.11
2018-05-25T08:12:53.219Z,53.61
2018-05-25T08:14:46.246Z,58.73
2018-05-25T08:15:46.317Z,57.13
2018-05-25T08:17:39.335Z,49.58
2018-05-25T08:18:39.415Z,48.60
2018-05-25T08:20:32.441Z,52.64
2018-05-25T08:21:32.519Z,55.86
2018-05-25T08:23:25.537Z,62.83
2018-05-25T08:24:25.618Z,64.00
2018-05-25T08:26:18.639Z,53.62
2018-05-25T08:27:18.711Z,58.24
2018-05-25T08:29:11.733Z,71.50
2018-05-25T08:30:11.815Z,70.75
2018-05-25T08:32:04.847Z,63.24
2018-05-25T08:33:04.914Z,55.06
2018-05-25T08:34:57.950Z,49.04
2018-05-25T08:35:58.016Z,47.81
2018-05-25T08:37:51.080Z,48.26
2018-05-25T08:38:51.120Z,55.15
2018-05-25T08:40:44.144Z,59.58
2018-05-25T08:41:44.214Z,62.79
2018-05-25T08:43:37.236Z,65.43
2018-05-25T08:44:37.314Z,66.73
2018-05-25T08:46:30.340Z,61.07
2018-05-25T08:47:30.416Z,57.13
2018-05-25T08:49:23.427Z,57.10
2018-05-25T08:50:23.502Z,61.40
2018-05-25T08:52:16.525Z,68.22
2018-05-25T08:53:16.596Z,62.41
2018-05-25T08:55:09.655Z,53.83
2018-05-25T08:56:09.690Z,53.17
2018-05-25T08:58:02.705Z,49.48
2018-05-25T08:59:02.786Z,47.84
2018-05-25T09:00:55.814Z,47.59
2018-05-25T09:01:55.885Z,47.07
2018-05-25T09:03:48.906Z,47.03
2018-05-25T09:04:48.986Z,45.63
2018-05-25T09:06:42.049Z,44.91
2018-05-25T09:07:42.092Z,44.83
2018-05-25T09:09:35.112Z,44.37
2018-05-25T09:10:35.194Z,45.73
2018-05-25T09:12:29.739Z,44.62
2018-05-25T09:13:29.805Z,43.65
2018-05-25T09:15:22.840Z,42.92
2018-05-25T09:16:22.911Z,44.06
2018-05-25T09:18:15.939Z,47.89
2018-05-25T09:19:16.021Z,52.05
2018-05-25T09:21:09.049Z,56.77
2018-05-25T09:22:09.121Z,56.00
2018-05-25T09:24:02.145Z,61.54
2018-05-25T09:25:02.224Z,62.48
2018-05-25T09:26:55.254Z,67.38
2018-05-25T09:27:55.327Z,63.68
2018-05-25T09:29:48.348Z,63.19
2018-05-25T09:30:48.447Z,64.26
2018-05-25T09:32:41.447Z,64.94
2018-05-25T09:33:41.513Z,61.34
2018-05-25T09:35:34.536Z,63.55
2018-05-25T09:36:34.606Z,66.60
2018-05-25T09:38:27.623Z,65.72
2018-05-25T09:39:27.696Z,63.51
2018-05-25T09:41:20.720Z,67.67
2018-05-25T09:42:20.789Z,68.12
2018-05-25T09:44:13.802Z,72.14
2018-05-25T09:45:13.885Z,73.21
2018-05-25T09:47:06.894Z,73.15
2018-05-25T09:48:06.962Z,74.71
2018-05-25T09:49:59.996Z,74.86
2018-05-25T09:51:00.054Z,75.25
2018-05-25T09:52:53.089Z,73.69
2018-05-25T09:53:53.155Z,72.53
2018-05-25T09:55:46.168Z,72.47
2018-05-25T09:56:46.252Z,70.62
2018-05-25T09:58:39.242Z,74.18
2018-05-25T09:59:39.320Z,75.54
2018-05-25T10:01:32.334Z,76.67
2018-05-25T10:02:32.409Z,77.15
2018-05-25T10:04:25.409Z,77.22
2018-05-25T10:05:25.546Z,76.64
2018-05-25T10:07:18.503Z,76.54
2018-05-25T10:08:18.575Z,77.12
2018-05-25T10:10:11.655Z,77.12
2018-05-25T10:11:11.670Z,77.64
2018-05-25T10:13:04.752Z,78.05
2018-05-25T10:14:04.741Z,78.34
2018-05-25T10:15:57.800Z,78.73
2018-05-25T10:16:57.837Z,77.72
2018-05-25T10:18:50.836Z,77.72
2018-05-25T10:19:50.914Z,77.67
2018-05-25T10:21:43.936Z,76.98
2018-05-25T10:22:44.011Z,77.57
2018-05-25T10:24:37.002Z,77.08
2018-05-25T10:25:37.075Z,76.98
2018-05-25T10:27:30.089Z,74.01
2018-05-25T10:28:30.170Z,74.17
2018-05-25T10:30:23.161Z,75.47
2018-05-25T10:31:23.237Z,73.20
2018-05-25T10:33:16.264Z,75.72
2018-05-25T10:34:16.319Z,76.98
2018-05-25T10:36:09.337Z,76.50
2018-05-25T10:37:09.398Z,77.18
2018-05-25T10:39:02.415Z,77.24
2018-05-25T10:40:02.488Z,77.72
2018-05-25T10:41:55.503Z,77.72
2018-05-25T10:42:55.570Z,76.98
2018-05-25T10:44:48.581Z,77.51
2018-05-25T10:45:48.644Z,76.83
2018-05-25T10:47:41.664Z,76.83
2018-05-25T10:48:41.777Z,77.28
2018-05-25T10:50:34.739Z,77.76
2018-05-25T10:51:34.820Z,77.86
2018-05-25T10:53:27.829Z,76.60
2018-05-25T10:54:27.914Z,79.22
2018-05-25T10:56:20.923Z,77.37
2018-05-25T10:57:20.992Z,77.31
2018-05-25T10:59:14.000Z,77.90
2018-05-25T11:00:14.105Z,77.31
2018-05-25T11:02:07.084Z,76.09
2018-05-25T11:03:07.153Z,74.50
2018-05-25T11:05:00.157Z,71.20
2018-05-25T11:06:00.229Z,75.04
2018-05-25T11:07:53.242Z,77.37
2018-05-25T11:08:53.308Z,76.98
2018-05-25T11:10:46.318Z,78.15
2018-05-25T11:11:46.404Z,77.22
2018-05-25T11:13:39.405Z,75.31
2018-05-25T11:14:39.472Z,73.75
2018-05-25T11:16:32.483Z,73.08
2018-05-25T11:17:32.545Z,73.27
2018-05-25T11:19:25.559Z,76.67
2018-05-25T11:20:25.629Z,75.99
2018-05-25T11:22:18.637Z,74.30
2018-05-25T11:23:18.708Z,76.64
2018-05-25T11:25:11.718Z,77.08
2018-05-25T11:26:11.784Z,77.53
2018-05-25T11:28:04.803Z,76.75
2018-05-25T11:29:04.864Z,77.04
2018-05-25T11:30:57.876Z,76.75
2018-05-25T11:31:57.958Z,75.98
2018-05-25T11:33:50.961Z,75.49
2018-05-25T11:34:51.029Z,75.10
2018-05-25T11:36:44.043Z,74.04
2018-05-25T11:37:44.106Z,76.37
2018-05-25T11:39:37.121Z,77.14
2018-05-25T11:40:37.182Z,76.37
2018-05-25T11:42:30.201Z,75.30
2018-05-25T11:43:30.259Z,73.07
2018-05-25T11:45:23.265Z,78.15
2018-05-25T11:46:23.337Z,76.44
2018-05-25T11:48:16.551Z,73.39
2018-05-25T11:49:16.614Z,74.37
2018-05-25T11:51:09.665Z,76.69
2018-05-25T11:52:09.694Z,77.43
2018-05-25T11:54:02.704Z,76.95
2018-05-25T11:55:02.766Z,77.14
2018-05-25T11:56:55.787Z,76.40
2018-05-25T11:57:55.853Z,76.50
2018-05-25T11:59:48.862Z,76.85
2018-05-25T12:00:48.932Z,77.04
2018-05-25T12:02:41.943Z,78.17
2018-05-25T12:03:42.007Z,77.92
2018-05-25T12:05:35.024Z,78.50
2018-05-25T12:06:35.156Z,77.72
2018-05-25T12:08:28.108Z,77.62
2018-05-25T12:09:28.174Z,78.02
2018-05-25T12:11:21.194Z,78.44
2018-05-25T12:12:21.256Z,77.67
2018-05-25T12:14:14.283Z,77.92
2018-05-25T12:15:14.341Z,77.82
2018-05-25T12:17:07.359Z,78.75
2018-05-25T12:18:07.426Z,77.88
2018-05-25T12:20:00.440Z,78.94
2018-05-25T12:21:00.513Z,78.79
2018-05-25T12:22:53.525Z,78.59
2018-05-25T12:23:53.591Z,78.27
2018-05-25T12:25:46.614Z,77.75
2018-05-25T12:26:46.677Z,78.81
2018-05-25T12:28:39.720Z,78.81
2018-05-25T12:29:39.771Z,79.10
2018-05-25T12:31:32.776Z,78.71
2018-05-25T12:32:32.847Z,78.56
2018-05-25T12:34:25.877Z,78.52
2018-05-25T12:35:25.924Z,78.42
2018-05-25T12:37:18.932Z,79.04
2018-05-25T12:38:19.003Z,79.53
2018-05-25T12:40:12.014Z,78.85
2018-05-25T12:41:12.084Z,77.34
2018-05-25T12:43:05.092Z,78.27
2018-05-25T12:44:05.158Z,77.98
2018-05-25T12:45:58.161Z,78.85
2018-05-25T12:46:58.231Z,77.98
2018-05-25T12:48:51.244Z,77.53
2018-05-25T12:49:51.308Z,77.62
2018-05-25T12:51:44.317Z,77.24
2018-05-25T12:52:44.382Z,76.65
2018-05-25T12:54:37.396Z,75.61
2018-05-25T12:55:37.476Z,77.55
2018-05-25T12:57:30.480Z,78.33
2018-05-25T12:58:30.560Z,78.03
2018-05-25T13:00:23.548Z,78.07
2018-05-25T13:01:23.622Z,78.17
2018-05-25T13:03:16.641Z,78.36
2018-05-25T13:04:16.697Z,77.29
2018-05-25T13:06:09.898Z,77.34
2018-05-25T13:07:09.968Z,77.72
2018-05-25T13:09:02.979Z,77.04
2018-05-25T13:10:03.043Z,77.04
2018-05-25T13:11:56.572Z,77.88
2018-05-25T13:12:56.633Z,77.69
2018-05-25T13:14:49.648Z,77.45
2018-05-25T13:15:49.722Z,77.55
2018-05-25T13:17:42.723Z,77.94
2018-05-25T13:18:42.790Z,78.33
2018-05-25T13:20:35.806Z,79.10
2018-05-25T13:21:35.867Z,79.68
2018-05-25T13:23:28.874Z,79.35
2018-05-25T13:24:28.942Z,78.77
2018-05-25T13:26:21.942Z,79.16
2018-05-25T13:27:22.010Z,79.25
2018-05-25T13:29:15.027Z,78.58
2018-05-25T13:30:15.085Z,78.87
2018-05-25T13:32:08.150Z,79.25
2018-05-25T13:33:08.282Z,78.87
2018-05-25T13:35:01.179Z,79.22
2018-05-25T13:36:01.245Z,78.54
2018-05-25T13:37:54.254Z,79.12
2018-05-25T13:38:54.322Z,78.83
2018-05-25T13:40:47.325Z,77.86
2018-05-25T13:41:47.399Z,78.74
2018-05-25T13:43:40.406Z,78.15
2018-05-25T13:44:40.471Z,77.28
2018-05-25T13:46:33.474Z,79.02
2018-05-25T13:47:33.558Z,77.76
2018-05-25T13:49:26.570Z,78.74
2018-05-25T13:50:26.623Z,78.74
2018-05-25T13:52:19.629Z,79.22
2018-05-25T13:53:19.702Z,78.74
2018-05-25T13:55:12.715Z,79.32
2018-05-25T13:56:12.786Z,80.28
2018-05-25T13:58:05.800Z,79.99
2018-05-25T13:59:05.875Z,80.19
2018-05-25T14:00:58.883Z,80.28
2018-05-25T14:01:58.946Z,79.12
2018-05-25T14:03:51.954Z,79.99
2018-05-25T14:04:52.027Z,79.32
2018-05-25T14:06:45.027Z,78.92
2018-05-25T14:07:45.096Z,79.06
2018-05-25T14:09:38.108Z,78.74
2018-05-25T14:10:38.171Z,78.92
2018-05-25T14:12:31.688Z,79.02
2018-05-25T14:13:31.748Z,79.64
2018-05-25T14:15:24.795Z,79.64
2018-05-25T14:16:24.824Z,79.93
2018-05-25T14:18:17.839Z,78.97
2018-05-25T14:19:17.905Z,78.67
2018-05-25T14:21:10.912Z,78.91
2018-05-25T14:22:10.980Z,78.61
2018-05-25T14:24:04.005Z,79.10
2018-05-25T14:25:04.060Z,79.20
2018-05-25T14:26:57.063Z,79.00
2018-05-25T14:27:57.135Z,78.81
2018-05-25T14:29:50.146Z,78.23
2018-05-25T14:30:50.209Z,78.03
2018-05-25T14:32:43.212Z,77.88
2018-05-25T14:33:43.282Z,77.98
2018-05-25T14:35:36.301Z,77.92
2018-05-25T14:36:36.374Z,76.46
2018-05-25T14:38:29.379Z,75.10
2018-05-25T14:39:29.445Z,76.85
2018-05-25T14:41:22.500Z,73.84
2018-05-25T14:42:22.532Z,75.49
2018-05-25T14:44:15.528Z,74.04
2018-05-25T14:45:15.589Z,73.84
2018-05-25T14:47:08.617Z,71.70
2018-05-25T14:48:08.669Z,72.67
2018-05-25T14:50:01.686Z,70.48
2018-05-25T14:51:01.750Z,71.36
2018-05-25T14:52:54.757Z,70.09
2018-05-25T14:53:54.846Z,70.57
2018-05-25T14:55:47.837Z,73.39
2018-05-25T14:56:47.901Z,73.10
2018-05-25T14:58:40.910Z,75.24
2018-05-25T14:59:40.973Z,73.00
2018-05-25T15:01:33.981Z,70.48
2018-05-25T15:02:34.098Z,70.67
2018-05-25T15:04:27.067Z,70.61
2018-05-25T15:05:27.134Z,68.57
2018-05-25T15:07:20.136Z,72.55
2018-05-25T15:08:20.205Z,70.22
2018-05-25T15:10:13.220Z,71.00
2018-05-25T15:11:13.281Z,71.39
2018-05-25T15:13:06.348Z,69.64
2018-05-25T15:14:06.418Z,70.65
2018-05-25T15:15:59.435Z,70.51
2018-05-25T15:16:59.496Z,68.77
2018-05-25T15:18:52.513Z,70.36
2018-05-25T15:19:52.567Z,67.21
2018-05-25T15:21:45.574Z,70.94
2018-05-25T15:22:45.642Z,68.99
2018-05-25T15:24:38.653Z,66.47
2018-05-25T15:25:38.716Z,65.79
2018-05-25T15:27:31.724Z,67.99
2018-05-25T15:28:31.790Z,69.54
2018-05-25T15:30:24.817Z,71.29
2018-05-25T15:31:24.881Z,70.19
2018-05-25T15:33:17.893Z,71.97
2018-05-25T15:34:17.961Z,70.39
2018-05-25T15:36:10.992Z,70.71
2018-05-25T15:37:11.056Z,68.57
2018-05-25T15:39:04.068Z,69.35
2018-05-25T15:40:04.132Z,70.12
2018-05-25T15:41:57.138Z,73.62
2018-05-25T15:42:57.209Z,73.20
2018-05-25T15:44:50.219Z,73.30
2018-05-25T15:45:50.281Z,75.72
2018-05-25T15:47:43.286Z,75.82
2018-05-25T15:48:43.356Z,74.62
2018-05-25T15:50:36.367Z,75.59
2018-05-25T15:51:36.431Z,75.59
2018-05-25T15:53:29.439Z,76.91
2018-05-25T15:54:29.509Z,76.23
2018-05-25T15:56:22.564Z,77.01
2018-05-25T15:57:22.587Z,76.95
2018-05-25T15:59:15.602Z,75.45
2018-05-25T16:00:15.664Z,75.55
2018-05-25T16:02:08.695Z,76.62
2018-05-25T16:03:08.748Z,77.49
2018-05-25T16:05:01.764Z,77.04
2018-05-25T16:06:01.827Z,76.46
2018-05-25T16:07:54.831Z,75.68
2018-05-25T16:08:54.911Z,76.65
2018-05-25T16:10:47.914Z,75.62
2018-05-25T16:11:47.978Z,76.69
2018-05-25T16:13:41.018Z,76.98
2018-05-25T16:14:41.051Z,75.92
2018-05-25T16:16:34.060Z,74.62
2018-05-25T16:17:34.127Z,74.77
2018-05-25T16:19:27.140Z,75.65
2018-05-25T16:20:27.203Z,76.23
2018-05-25T16:22:20.212Z,77.01
2018-05-25T16:23:20.280Z,77.59
2018-05-25T16:25:13.300Z,77.26
2018-05-25T16:26:13.358Z,77.75
2018-05-25T16:28:06.358Z,76.97
2018-05-25T16:29:06.429Z,77.84
2018-05-25T16:30:59.470Z,77.84
2018-05-25T16:31:59.500Z,78.33
2018-05-25T16:33:52.508Z,78.42
2018-05-25T16:34:52.573Z,78.00
2018-05-25T16:36:45.588Z,78.48
2018-05-25T16:37:45.651Z,78.97
2018-05-25T16:39:38.663Z,79.35
2018-05-25T16:40:38.728Z,79.16
2018-05-25T16:42:31.754Z,79.16
2018-05-25T16:43:31.794Z,79.35
2018-05-25T16:45:24.811Z,78.77
2018-05-25T16:46:24.876Z,78.97
2018-05-25T16:48:17.880Z,78.77
2018-05-25T16:49:17.946Z,78.29
2018-05-25T16:51:10.966Z,78.77
2018-05-25T16:52:11.037Z,78.77
2018-05-25T16:54:04.026Z,78.77
2018-05-25T16:55:04.087Z,78.87
2018-05-25T16:56:57.101Z,78.97
2018-05-25T16:57:57.157Z,78.77
2018-05-25T16:59:50.188Z,79.25
2018-05-25T17:00:50.275Z,79.22
2018-05-25T17:02:43.240Z,79.41
2018-05-25T17:03:43.315Z,79.55
2018-05-25T17:05:36.322Z,79.12
2018-05-25T17:06:36.386Z,79.70
2018-05-25T17:08:29.403Z,79.50
2018-05-25T17:09:29.465Z,79.60
2018-05-25T17:11:22.477Z,80.09
2018-05-25T17:12:22.540Z,79.41
2018-05-25T17:14:15.558Z,79.60
2018-05-25T17:15:15.610Z,79.41
2018-05-25T17:17:08.621Z,79.32
2018-05-25T17:18:08.683Z,79.22
2018-05-25T17:20:01.696Z,79.80
2018-05-25T17:21:01.777Z,80.19
2018-05-25T17:22:54.765Z,79.50
2018-05-25T17:23:54.902Z,79.32
2018-05-25T17:25:48.503Z,79.41
2018-05-25T17:26:47.995Z,78.83
2018-05-25T17:28:40.938Z,79.70
2018-05-25T17:29:41.005Z,80.19
2018-05-25T17:31:35.515Z,79.50
2018-05-25T17:32:35.574Z,79.70
2018-05-25T17:34:28.578Z,79.60
2018-05-25T17:35:28.648Z,79.80
2018-05-25T17:37:21.652Z,79.60
2018-05-25T17:38:21.717Z,79.60
2018-05-25T17:40:14.731Z,79.99
2018-05-25T17:41:15.084Z,79.99
2018-05-25T17:43:07.800Z,80.05
2018-05-25T17:44:07.876Z,79.76
2018-05-25T17:46:00.881Z,80.34
2018-05-25T17:47:00.942Z,79.37
2018-05-25T17:48:53.948Z,79.47
2018-05-25T17:49:54.013Z,78.99
2018-05-25T17:51:47.033Z,79.57
2018-05-25T17:52:47.095Z,79.85
2018-05-25T17:54:40.092Z,79.37
2018-05-25T17:55:40.163Z,79.57
2018-05-25T17:57:33.203Z,79.95
2018-05-25T17:58:33.237Z,80.15
2018-05-25T18:00:26.248Z,79.66
2018-05-25T18:01:26.309Z,79.95
2018-05-25T18:03:19.317Z,79.66
2018-05-25T18:04:19.392Z,80.54
2018-05-25T18:06:12.399Z,79.66
2018-05-25T18:07:12.458Z,79.57
2018-05-25T18:09:05.472Z,79.47
2018-05-25T18:10:05.529Z,79.85
2018-05-25T18:11:58.550Z,78.99
2018-05-25T18:12:58.596Z,79.24
2018-05-25T18:14:51.606Z,79.52
2018-05-25T18:15:51.680Z,79.62
2018-05-25T18:17:44.688Z,79.04
2018-05-25T18:18:44.751Z,78.11
2018-05-25T18:20:37.755Z,78.94
2018-05-25T18:21:37.818Z,78.46
2018-05-25T18:23:30.820Z,78.08
2018-05-25T18:24:30.896Z,78.17
2018-05-25T18:26:23.896Z,77.78
2018-05-25T18:27:23.958Z,77.69
2018-05-25T18:29:16.961Z,78.27
2018-05-25T18:30:17.032Z,77.30
2018-05-25T18:32:10.040Z,77.20
2018-05-25T18:33:10.099Z,77.59
2018-05-25T18:35:03.104Z,77.20